Springfield, IL (62715)

5:09 AM CDT on August 31, 2015 (GMT -0500)
Springfield West Side | | Change Station
CLOSE
Current Station
Personal Weather Station
Location: Springfield, IL
Elevation: 604 ft
Nearby Weather Stations

Elev 604 ft 39.79 °N, 89.69 °W | Updated 29 seconds ago

Clear
Clear
70.3 °F
Feels Like 70.3 °F
N
0.0
Wind Variable Wind from NE
Gusts 0.9 mph

Today
High -- | Low -- °F
--% Chance of Precip.
Yesterday
High -- | Low -- °F
Precip. -- in
6:25 AM 7:31 PM
Waning Gibbous, 96% visible
Pressure 30.01 in
Visibility 6.0 miles
Clouds Clear
Dew Point 69 °F
Humidity 95%
Rainfall 0.00 in
Snow Depth Not available.
UV 0 out of 12
Pollen 10.30 out of 12
Air Quality Not available.
Flu Activity Not available.
METAR KSPI 310952Z AUTO 18003KT 6SM BR CLR 21/20 A3002 RMK AO2 SLP160 T02110200
Pressure 30.01 in
Visibility 6.0 miles
Clouds Clear
Dew Point 69 °F
Humidity 95%
Rainfall 0.00 in
Snow Depth Not available.
UV 0 out of 12
Pollen 10.30 out of 12
Air Quality Not available.
Flu Activity Not available.
METAR KSPI 310952Z AUTO 18003KT 6SM BR CLR 21/20 A3002 RMK AO2 SLP160 T02110200

10-Day Weather Forecast

×

Almanac

Astronomy

Aug. 31, 2015 Rise Set
Actual Time
Civil Twilight
Nautical Twilight
Astronomical Twilight
Moon
Length of Visible Light
Length of Day
Tomorrow will be .
, % of the Moon is Illuminated

Today's Extremes

State Highs State Lows

Community

WunderPhotos

Upload Photos

1,851,229 photos uploaded!

WunderBlogs® & News

Nearby

Air Quality

  Air Quality AQ Index Pollutant
Not available.

Snow Depth

Station Depth Elevation

Earthquake Activity

City Distance Mag. Time & Date
Minimum magnitude displayed is 2.5.

Coastal Water Temperatures

Place Temperature

Stations

Nearby Weather Stations

Station Location Temp. Windchill Dew Point Humidity Wind Precip. Elev Updated Type